createdAt,value
2019-02-23T00:01:15.826Z,73.40
2019-02-23T00:03:45.520Z,72.75
2019-02-23T00:06:15.072Z,73.29
2019-02-23T00:08:44.765Z,73.04
2019-02-23T00:11:14.443Z,72.75
2019-02-23T00:13:44.085Z,72.76
2019-02-23T00:16:13.802Z,72.45
2019-02-23T00:18:43.442Z,72.36
2019-02-23T00:21:13.200Z,72.53
2019-02-23T00:23:42.861Z,72.08
2019-02-23T00:26:12.472Z,72.01
2019-02-23T00:28:42.081Z,72.49
2019-02-23T00:31:11.750Z,72.45
2019-02-23T00:33:41.400Z,72.13
2019-02-23T00:36:11.038Z,72.43
2019-02-23T00:38:40.654Z,71.77
2019-02-23T00:41:10.318Z,71.29
2019-02-23T00:43:40.118Z,71.53
2019-02-23T00:46:09.746Z,71.14
2019-02-23T00:48:39.348Z,71.82
2019-02-23T00:51:09.028Z,71.64
2019-02-23T00:53:38.635Z,70.99
2019-02-23T00:56:08.251Z,70.68
2019-02-23T00:58:37.878Z,70.81
2019-02-23T01:01:07.504Z,71.40
2019-02-23T01:03:37.158Z,71.91
2019-02-23T01:06:06.876Z,72.02
2019-02-23T01:08:36.490Z,71.79
2019-02-23T01:11:06.129Z,71.86
2019-02-23T01:13:35.901Z,72.59
2019-02-23T01:16:05.713Z,73.11
2019-02-23T01:18:35.314Z,73.02
2019-02-23T01:21:05.052Z,72.60
2019-02-23T01:23:34.673Z,72.11
2019-02-23T01:26:04.308Z,71.62
2019-02-23T01:28:33.922Z,71.05
2019-02-23T01:31:03.639Z,71.27
2019-02-23T01:33:33.278Z,71.86
2019-02-23T01:36:02.958Z,71.95
2019-02-23T01:38:35.651Z,72.45
2019-02-23T01:41:05.466Z,72.63
2019-02-23T01:43:35.130Z,73.05
2019-02-23T01:46:04.798Z,73.80
2019-02-23T01:48:34.448Z,74.50
2019-02-23T01:51:04.087Z,74.80
2019-02-23T01:53:33.726Z,74.69
2019-02-23T01:56:04.846Z,73.88
2019-02-23T01:58:34.518Z,72.86
2019-02-23T02:01:05.099Z,72.55
2019-02-23T02:03:34.906Z,72.52
2019-02-23T02:06:04.621Z,73.02
2019-02-23T02:08:34.741Z,73.77
2019-02-23T02:11:04.358Z,73.81
2019-02-23T02:13:34.023Z,73.55
2019-02-23T02:16:03.664Z,73.19
2019-02-23T02:18:33.450Z,72.61
2019-02-23T02:21:03.076Z,71.90
2019-02-23T02:23:32.708Z,72.01
2019-02-23T02:26:02.495Z,71.62
2019-02-23T02:28:36.894Z,72.00
2019-02-23T02:31:06.528Z,71.71
2019-02-23T02:33:55.505Z,71.76
2019-02-23T02:36:25.204Z,71.98
2019-02-23T02:38:54.919Z,71.43
2019-02-23T02:41:24.532Z,71.58
2019-02-23T02:43:54.289Z,71.66
2019-02-23T02:46:23.919Z,71.54
2019-02-23T02:48:53.578Z,72.06
2019-02-23T02:51:23.213Z,72.00
2019-02-23T02:53:52.870Z,71.96
2019-02-23T02:56:22.529Z,72.50
2019-02-23T02:58:52.166Z,73.34
2019-02-23T03:01:21.835Z,74.16
2019-02-23T03:03:51.500Z,74.46
2019-02-23T03:06:21.125Z,74.27
2019-02-23T03:08:50.937Z,73.75
2019-02-23T03:11:20.710Z,73.98
2019-02-23T03:13:50.632Z,74.31
2019-02-23T03:16:20.564Z,75.24
2019-02-23T03:18:50.586Z,75.76
2019-02-23T03:21:20.472Z,75.97
2019-02-23T03:23:50.387Z,76.31
2019-02-23T03:26:20.285Z,76.24
2019-02-23T03:28:50.434Z,76.22
2019-02-23T03:31:20.297Z,76.45
2019-02-23T03:33:50.368Z,76.63
2019-02-23T03:36:20.242Z,77.39
2019-02-23T03:38:50.154Z,77.75
2019-02-23T03:41:20.706Z,76.50
2019-02-23T03:43:50.513Z,75.97
2019-02-23T03:46:20.230Z,75.55
2019-02-23T03:48:49.938Z,74.94
2019-02-23T03:51:19.651Z,74.57
2019-02-23T03:53:49.307Z,74.44
2019-02-23T03:56:19.137Z,73.90
2019-02-23T03:58:49.750Z,73.87
2019-02-23T04:01:19.398Z,73.73
2019-02-23T04:03:49.088Z,73.42
2019-02-23T04:06:18.749Z,72.61
2019-02-23T04:08:48.382Z,72.17
2019-02-23T04:11:18.090Z,72.61
2019-02-23T04:13:47.801Z,73.26
2019-02-23T04:16:17.444Z,73.02
2019-02-23T04:18:47.121Z,72.82
2019-02-23T04:21:16.755Z,73.14
2019-02-23T04:23:46.457Z,72.77
2019-02-23T04:26:16.216Z,73.26
2019-02-23T04:28:45.829Z,73.32
2019-02-23T04:31:15.503Z,73.83
2019-02-23T04:33:45.126Z,74.41
2019-02-23T04:36:14.756Z,74.54
2019-02-23T04:38:44.390Z,74.60
2019-02-23T04:41:14.046Z,74.99
2019-02-23T04:43:44.274Z,74.90
2019-02-23T04:46:13.968Z,74.79
2019-02-23T04:48:43.608Z,74.85
2019-02-23T04:51:14.768Z,75.10
2019-02-23T04:53:44.838Z,74.21
2019-02-23T04:56:14.535Z,73.31
2019-02-23T04:58:44.152Z,72.92
2019-02-23T05:01:13.824Z,72.95
2019-02-23T05:03:43.481Z,73.08
2019-02-23T05:06:13.213Z,72.82
2019-02-23T05:08:42.859Z,72.51
2019-02-23T05:11:12.564Z,72.26
2019-02-23T05:13:42.190Z,72.12
2019-02-23T05:16:11.828Z,72.32
2019-02-23T05:18:41.458Z,72.73
2019-02-23T05:21:11.173Z,72.83
2019-02-23T05:23:40.911Z,72.62
2019-02-23T05:26:10.550Z,72.37
2019-02-23T05:28:40.194Z,71.67
2019-02-23T05:31:09.911Z,72.23
2019-02-23T05:33:39.775Z,73.47
2019-02-23T05:36:09.533Z,73.59
2019-02-23T05:38:39.158Z,73.71
2019-02-23T05:41:08.820Z,73.98
2019-02-23T05:43:38.558Z,74.18
2019-02-23T05:46:08.204Z,73.35
2019-02-23T05:48:37.844Z,73.09
2019-02-23T05:51:07.462Z,72.84
2019-02-23T05:53:37.257Z,72.94
2019-02-23T05:56:07.085Z,72.52
2019-02-23T05:58:36.814Z,72.71
2019-02-23T06:01:06.504Z,72.93
2019-02-23T06:03:36.324Z,73.25
2019-02-23T06:06:06.201Z,73.17
2019-02-23T06:08:35.880Z,73.63
2019-02-23T06:11:05.905Z,73.59
2019-02-23T06:13:35.714Z,72.47
2019-02-23T06:16:06.929Z,72.29
2019-02-23T06:18:36.685Z,72.28
2019-02-23T06:21:06.376Z,72.54
2019-02-23T06:23:36.086Z,72.57
2019-02-23T06:26:05.740Z,72.12
2019-02-23T06:28:35.469Z,71.70
2019-02-23T06:31:05.194Z,72.31
2019-02-23T06:33:34.867Z,72.25
2019-02-23T06:36:07.086Z,72.29
2019-02-23T06:38:35.956Z,71.88
2019-02-23T06:41:05.644Z,72.07
2019-02-23T06:43:35.494Z,72.36
2019-02-23T06:46:05.201Z,72.08
2019-02-23T06:48:35.143Z,71.44
2019-02-23T06:51:04.816Z,71.78
2019-02-23T06:53:34.521Z,71.21
2019-02-23T06:56:04.208Z,71.28
2019-02-23T06:58:33.943Z,71.03
2019-02-23T07:01:03.692Z,71.13
2019-02-23T07:03:33.427Z,71.03
2019-02-23T07:06:03.100Z,71.01
2019-02-23T07:08:32.858Z,70.72
2019-02-23T07:11:02.523Z,70.97
2019-02-23T07:13:32.218Z,70.78
2019-02-23T07:16:07.618Z,70.52
2019-02-23T07:18:37.326Z,69.92
2019-02-23T07:21:07.046Z,69.90
2019-02-23T07:23:36.769Z,69.20
2019-02-23T07:26:06.573Z,69.24
2019-02-23T07:28:36.284Z,69.14
2019-02-23T07:31:05.961Z,68.87
2019-02-23T07:33:35.733Z,68.74
2019-02-23T07:36:05.404Z,68.23
2019-02-23T07:38:35.613Z,68.16
2019-02-23T07:41:05.382Z,67.98
2019-02-23T07:43:35.079Z,67.69
2019-02-23T07:46:04.748Z,68.20
2019-02-23T07:48:34.492Z,67.90
2019-02-23T07:51:04.152Z,68.05
2019-02-23T07:53:33.822Z,67.80
2019-02-23T07:56:06.151Z,67.82
2019-02-23T07:58:35.044Z,68.13
2019-02-23T08:01:04.776Z,67.53
2019-02-23T08:03:34.486Z,67.61
2019-02-23T08:06:04.274Z,67.70
2019-02-23T08:08:33.934Z,68.51
2019-02-23T08:11:03.866Z,68.20
2019-02-23T08:13:33.637Z,68.60
2019-02-23T08:16:03.349Z,67.96
2019-02-23T08:18:34.696Z,67.83
2019-02-23T08:21:04.482Z,67.93
2019-02-23T08:23:34.300Z,67.62
2019-02-23T08:26:04.073Z,67.21
2019-02-23T08:28:33.739Z,66.60
2019-02-23T08:31:03.488Z,66.95
2019-02-23T08:33:33.243Z,66.64
2019-02-23T08:36:02.996Z,67.73
2019-02-23T08:38:32.995Z,66.59
2019-02-23T08:41:02.672Z,66.62
2019-02-23T08:43:32.456Z,67.15
2019-02-23T08:46:02.120Z,66.75
2019-02-23T08:48:48.400Z,66.82
2019-02-23T08:51:18.253Z,66.38
2019-02-23T08:53:47.994Z,65.81
2019-02-23T08:56:17.623Z,65.48
2019-02-23T08:58:47.373Z,65.38
2019-02-23T09:01:17.332Z,65.59
2019-02-23T09:03:49.671Z,64.19
2019-02-23T09:06:18.544Z,65.37
2019-02-23T09:08:48.159Z,64.20
2019-02-23T09:11:17.864Z,63.91
2019-02-23T09:13:47.678Z,64.61
2019-02-23T09:16:17.374Z,63.64
2019-02-23T09:18:46.994Z,63.90
2019-02-23T09:21:16.686Z,64.28
2019-02-23T09:23:46.672Z,64.71
2019-02-23T09:26:16.330Z,64.52
2019-02-23T09:28:46.228Z,64.44
2019-02-23T09:31:15.836Z,63.85
2019-02-23T09:33:45.476Z,62.82
2019-02-23T09:36:15.119Z,62.56
2019-02-23T09:38:44.723Z,63.28
2019-02-23T09:41:14.502Z,63.68
2019-02-23T09:43:44.148Z,63.26
2019-02-23T09:46:13.829Z,61.52
2019-02-23T09:48:43.478Z,62.07
2019-02-23T09:51:13.199Z,62.41
2019-02-23T09:53:42.817Z,61.08
2019-02-23T09:56:12.489Z,61.94
2019-02-23T09:58:42.108Z,60.24
2019-02-23T10:01:11.787Z,60.27
2019-02-23T10:03:41.634Z,60.07
2019-02-23T10:06:11.339Z,57.93
2019-02-23T10:08:41.035Z,57.54
2019-02-23T10:11:11.153Z,57.71
2019-02-23T10:13:47.015Z,58.12
2019-02-23T10:16:16.848Z,56.51
2019-02-23T10:18:46.532Z,55.76
2019-02-23T10:21:16.153Z,55.56
2019-02-23T10:23:45.792Z,54.79
2019-02-23T10:26:15.427Z,55.03
2019-02-23T10:28:45.050Z,54.36
2019-02-23T10:31:14.709Z,55.31
2019-02-23T10:33:47.581Z,54.32
2019-02-23T10:36:15.755Z,54.17
2019-02-23T10:38:45.405Z,54.74
2019-02-23T10:41:15.050Z,53.83
2019-02-23T10:43:44.730Z,53.92
2019-02-23T10:46:14.463Z,54.11
2019-02-23T10:48:44.102Z,53.11
2019-02-23T10:51:13.843Z,52.50
2019-02-23T10:53:43.456Z,53.18
2019-02-23T10:56:13.090Z,52.92
2019-02-23T10:58:42.781Z,52.51
2019-02-23T11:01:12.955Z,52.05
2019-02-23T11:03:43.048Z,53.34
2019-02-23T11:06:12.869Z,53.79
2019-02-23T11:08:42.485Z,52.54
2019-02-23T11:11:12.154Z,51.77
2019-02-23T11:13:41.901Z,51.17
2019-02-23T11:16:11.613Z,50.19
2019-02-23T11:18:41.245Z,52.37
2019-02-23T11:21:11.003Z,50.63
2019-02-23T11:23:44.128Z,50.30
2019-02-23T11:26:12.082Z,50.41
2019-02-23T11:28:41.819Z,49.84
2019-02-23T11:31:11.614Z,50.86
2019-02-23T11:33:42.338Z,50.21
2019-02-23T11:36:12.058Z,49.84
2019-02-23T11:38:41.902Z,49.88
2019-02-23T11:41:11.554Z,49.90
2019-02-23T11:43:41.193Z,51.11
2019-02-23T11:46:10.805Z,50.83
2019-02-23T11:48:40.459Z,49.76
2019-02-23T11:51:10.439Z,50.19
2019-02-23T11:53:40.113Z,50.49
2019-02-23T11:56:09.740Z,50.79
2019-02-23T11:58:39.462Z,49.78
2019-02-23T12:01:09.077Z,50.13
2019-02-23T12:03:38.822Z,50.55
2019-02-23T12:06:08.437Z,49.27
2019-02-23T12:08:38.062Z,49.78
2019-02-23T12:11:08.005Z,49.37
2019-02-23T12:13:37.754Z,48.64
2019-02-23T12:16:08.430Z,46.72
2019-02-23T12:18:38.231Z,48.49
2019-02-23T12:21:10.821Z,47.59
2019-02-23T12:23:46.663Z,47.43
2019-02-23T12:26:15.206Z,47.35
2019-02-23T12:28:44.844Z,48.36
2019-02-23T12:31:14.486Z,48.36
2019-02-23T12:33:44.155Z,47.63
2019-02-23T12:36:13.928Z,48.85
2019-02-23T12:38:43.710Z,48.90
2019-02-23T12:41:13.410Z,48.31
2019-02-23T12:43:43.195Z,47.66
2019-02-23T12:46:14.511Z,45.89
2019-02-23T12:48:44.175Z,45.28
2019-02-23T12:51:13.848Z,45.02
2019-02-23T12:53:44.900Z,46.05
2019-02-23T12:56:14.556Z,45.02
2019-02-23T12:58:48.748Z,46.30
2019-02-23T13:01:22.685Z,46.25
2019-02-23T13:03:52.375Z,46.62
2019-02-23T13:06:21.985Z,46.44
2019-02-23T13:09:16.893Z,45.08
2019-02-23T13:12:21.401Z,45.15
2019-02-23T13:14:59.830Z,44.11
2019-02-23T13:17:47.632Z,43.20
2019-02-23T13:20:29.337Z,43.88
2019-02-23T13:23:16.465Z,43.74
2019-02-23T13:25:51.862Z,44.50
2019-02-23T13:28:39.391Z,46.53
2019-02-23T13:31:39.355Z,45.87
2019-02-23T13:34:20.897Z,45.35
2019-02-23T13:37:05.152Z,45.21
2019-02-23T13:39:55.935Z,44.39
2019-02-23T13:42:55.961Z,45.14
2019-02-23T13:45:44.137Z,44.29
2019-02-23T13:48:21.220Z,45.28
2019-02-23T13:51:04.184Z,45.25
2019-02-23T13:53:42.374Z,45.38
2019-02-23T13:56:33.235Z,44.57
2019-02-23T13:59:24.000Z,45.13
2019-02-23T14:02:14.798Z,46.81
2019-02-23T14:04:50.155Z,46.61
2019-02-23T14:07:22.989Z,44.98
2019-02-23T14:10:01.468Z,44.75
2019-02-23T14:12:40.131Z,44.60
2019-02-23T14:15:30.160Z,45.53
2019-02-23T14:18:11.959Z,46.37
2019-02-23T14:20:56.669Z,46.13
2019-02-23T14:23:35.363Z,45.39
2019-02-23T14:26:20.349Z,45.98
2019-02-23T14:28:58.651Z,46.00
2019-02-23T14:31:41.552Z,46.45
2019-02-23T14:34:47.776Z,46.75
2019-02-23T14:37:23.262Z,45.47
2019-02-23T14:40:27.873Z,46.13
2019-02-23T14:43:17.322Z,46.45
2019-02-23T14:46:01.803Z,45.08
2019-02-23T14:48:58.166Z,45.68
2019-02-23T14:51:47.209Z,44.40
2019-02-23T14:54:28.901Z,46.73
2019-02-23T14:57:01.618Z,46.58
2019-02-23T14:59:37.075Z,46.33
2019-02-23T15:02:32.428Z,45.96
2019-02-23T15:05:23.486Z,47.50
2019-02-23T15:08:11.140Z,47.91
2019-02-23T15:10:55.907Z,47.62
2019-02-23T15:13:40.568Z,48.57
2019-02-23T15:16:36.030Z,48.00
2019-02-23T15:19:11.750Z,48.43
2019-02-23T15:22:04.000Z,48.24
2019-02-23T15:24:42.418Z,49.33
2019-02-23T15:27:29.553Z,48.14
2019-02-23T15:30:17.300Z,48.05
2019-02-23T15:33:07.884Z,48.28
2019-02-23T15:35:52.203Z,49.41
2019-02-23T15:38:26.723Z,50.48
2019-02-23T15:41:14.464Z,50.12
2019-02-23T15:43:53.092Z,49.50
2019-02-23T15:46:37.377Z,50.08
2019-02-23T15:49:13.034Z,49.85
2019-02-23T15:51:42.649Z,50.06
2019-02-23T15:54:12.506Z,50.36
2019-02-23T15:56:42.192Z,50.50
2019-02-23T15:59:11.827Z,51.23
2019-02-23T16:01:41.745Z,51.34
2019-02-23T16:04:11.486Z,51.40
2019-02-23T16:06:41.114Z,52.17
2019-02-23T16:09:10.783Z,50.77
2019-02-23T16:11:40.580Z,51.46
2019-02-23T16:14:10.235Z,51.18
2019-02-23T16:16:39.861Z,51.70
2019-02-23T16:19:09.521Z,52.24
2019-02-23T16:21:39.105Z,52.00
2019-02-23T16:24:08.866Z,52.15
2019-02-23T16:26:38.677Z,52.85
2019-02-23T16:29:08.457Z,52.63
2019-02-23T16:32:11.491Z,53.04
2019-02-23T16:34:41.464Z,52.76
2019-02-23T16:37:11.135Z,53.83
2019-02-23T16:39:40.758Z,53.73
2019-02-23T16:42:10.368Z,53.63
2019-02-23T16:44:40.189Z,53.52
2019-02-23T16:47:09.824Z,54.25
2019-02-23T16:49:39.511Z,54.92
2019-02-23T16:52:09.862Z,55.28
2019-02-23T16:54:39.502Z,55.19
2019-02-23T16:57:09.170Z,55.61
2019-02-23T16:59:38.899Z,55.93
2019-02-23T17:02:08.575Z,56.56
2019-02-23T17:04:38.173Z,56.49
2019-02-23T17:07:08.216Z,57.41
2019-02-23T17:09:38.210Z,57.80
2019-02-23T17:12:08.383Z,57.90
2019-02-23T17:14:38.427Z,57.58
2019-02-23T17:17:13.016Z,58.32
2019-02-23T17:19:43.095Z,58.69
2019-02-23T17:22:12.853Z,58.51
2019-02-23T17:24:42.466Z,58.62
2019-02-23T17:27:12.098Z,59.53
2019-02-23T17:29:41.703Z,59.40
2019-02-23T17:32:13.636Z,58.78
2019-02-23T17:34:43.753Z,59.04
2019-02-23T17:37:13.525Z,58.39
2019-02-23T17:39:43.138Z,58.54
2019-02-23T17:42:12.861Z,58.92
2019-02-23T17:44:42.639Z,58.79
2019-02-23T17:47:12.288Z,59.39
2019-02-23T17:49:41.923Z,60.18
2019-02-23T17:52:11.560Z,60.93
2019-02-23T17:54:41.251Z,61.89
2019-02-23T17:57:10.908Z,63.08
2019-02-23T17:59:40.621Z,62.87
2019-02-23T18:02:10.359Z,63.38
2019-02-23T18:04:40.068Z,63.97
2019-02-23T18:07:09.719Z,63.62
2019-02-23T18:09:39.410Z,64.16
2019-02-23T18:12:09.090Z,64.73
2019-02-23T18:14:38.733Z,65.07
2019-02-23T18:17:09.321Z,65.02
2019-02-23T18:19:38.938Z,65.32
2019-02-23T18:22:08.594Z,65.47
2019-02-23T18:24:38.212Z,65.83
2019-02-23T18:27:08.561Z,65.80
2019-02-23T18:29:38.374Z,65.38
2019-02-23T18:32:08.093Z,66.11
2019-02-23T18:34:37.700Z,66.86
2019-02-23T18:37:07.318Z,67.11
2019-02-23T18:39:36.958Z,66.45
2019-02-23T18:42:06.586Z,66.19
2019-02-23T18:44:36.243Z,66.63
2019-02-23T18:47:05.998Z,67.09
2019-02-23T18:49:35.662Z,67.21
2019-02-23T18:52:05.290Z,67.43
2019-02-23T18:54:46.293Z,68.02
2019-02-23T18:57:16.420Z,67.39
2019-02-23T18:59:48.602Z,65.59
2019-02-23T19:02:18.321Z,64.79
2019-02-23T19:04:48.029Z,64.89
2019-02-23T19:07:19.365Z,65.50
2019-02-23T19:09:49.081Z,66.50
2019-02-23T19:12:18.700Z,67.02
2019-02-23T19:14:48.392Z,67.42
2019-02-23T19:17:18.255Z,68.03
2019-02-23T19:19:48.211Z,66.50
2019-02-23T19:22:17.806Z,65.86
2019-02-23T19:24:47.459Z,65.63
2019-02-23T19:27:20.155Z,64.51
2019-02-23T19:29:50.160Z,64.38
2019-02-23T19:32:20.071Z,63.20
2019-02-23T19:34:50.064Z,63.12
2019-02-23T19:37:19.680Z,62.79
2019-02-23T19:39:49.369Z,62.17
2019-02-23T19:42:19.088Z,61.88
2019-02-23T19:44:48.961Z,61.76
2019-02-23T19:47:18.640Z,61.47
2019-02-23T19:49:49.338Z,61.64
2019-02-23T19:52:19.114Z,61.54
2019-02-23T19:54:49.069Z,61.43
2019-02-23T19:57:18.681Z,61.58
2019-02-23T19:59:48.594Z,61.85
2019-02-23T20:02:18.170Z,61.69
2019-02-23T20:04:47.956Z,61.47
2019-02-23T20:07:17.626Z,61.83
2019-02-23T20:09:47.251Z,62.37
2019-02-23T20:12:16.959Z,62.15
2019-02-23T20:14:46.627Z,62.12
2019-02-23T20:17:16.254Z,61.44
2019-02-23T20:19:47.171Z,61.71
2019-02-23T20:22:17.666Z,61.54
2019-02-23T20:24:47.357Z,61.44
2019-02-23T20:27:16.970Z,61.42
2019-02-23T20:29:47.728Z,61.97
2019-02-23T20:32:17.424Z,61.75
2019-02-23T20:34:47.411Z,61.95
2019-02-23T20:37:17.020Z,62.33
2019-02-23T20:39:46.666Z,61.05
2019-02-23T20:42:16.369Z,60.59
2019-02-23T20:44:46.055Z,60.52
2019-02-23T20:47:17.255Z,61.60
2019-02-23T20:49:47.143Z,61.71
2019-02-23T20:52:16.828Z,60.28
2019-02-23T20:54:46.628Z,61.07
2019-02-23T20:57:16.501Z,61.27
2019-02-23T20:59:47.991Z,60.76
2019-02-23T21:02:17.822Z,60.44
2019-02-23T21:04:47.467Z,61.04
2019-02-23T21:07:17.091Z,60.40
2019-02-23T21:09:46.737Z,60.67
2019-02-23T21:12:16.440Z,60.36
2019-02-23T21:14:46.163Z,60.64
2019-02-23T21:17:16.042Z,59.67
2019-02-23T21:19:45.869Z,59.73
2019-02-23T21:22:15.561Z,59.15
2019-02-23T21:24:45.318Z,59.33
2019-02-23T21:27:15.549Z,59.50
2019-02-23T21:29:45.307Z,59.16
2019-02-23T21:32:15.595Z,58.74
2019-02-23T21:34:45.339Z,58.36
2019-02-23T21:37:15.213Z,58.51
2019-02-23T21:39:44.878Z,57.98
2019-02-23T21:42:14.733Z,57.87
2019-02-23T21:44:44.418Z,58.17
2019-02-23T21:47:14.111Z,57.96
2019-02-23T21:49:44.145Z,58.28
2019-02-23T21:52:14.044Z,57.70
2019-02-23T21:54:43.737Z,57.85
2019-02-23T21:57:21.811Z,57.96
2019-02-23T21:59:45.024Z,58.45
2019-02-23T22:02:14.891Z,58.12
2019-02-23T22:04:44.651Z,59.12
2019-02-23T22:07:14.409Z,60.08
2019-02-23T22:09:44.127Z,60.10
2019-02-23T22:12:13.876Z,60.60
2019-02-23T22:14:43.662Z,60.59
2019-02-23T22:17:13.593Z,61.37
2019-02-23T22:19:43.335Z,61.14
2019-02-23T22:22:13.353Z,61.67
2019-02-23T22:24:43.164Z,61.68
2019-02-23T22:27:12.917Z,62.01
2019-02-23T22:29:42.733Z,62.81
2019-02-23T22:32:12.489Z,62.80
2019-02-23T22:34:42.556Z,63.48
2019-02-23T22:37:12.185Z,63.84
2019-02-23T22:39:41.911Z,64.36
2019-02-23T22:42:11.678Z,65.19
2019-02-23T22:44:41.393Z,65.65
2019-02-23T22:47:11.072Z,66.35
2019-02-23T22:49:40.896Z,66.33
2019-02-23T22:52:10.610Z,66.79
2019-02-23T22:54:40.475Z,67.26
2019-02-23T22:57:10.234Z,66.74
2019-02-23T22:59:40.006Z,67.97
2019-02-23T23:02:09.699Z,68.36
2019-02-23T23:04:39.453Z,69.27
2019-02-23T23:07:09.194Z,69.75
2019-02-23T23:09:38.952Z,69.70
2019-02-23T23:12:08.643Z,70.04
2019-02-23T23:14:38.366Z,70.28
2019-02-23T23:17:08.025Z,70.61
2019-02-23T23:19:37.735Z,70.51
2019-02-23T23:22:07.425Z,70.51
2019-02-23T23:24:37.192Z,70.98
2019-02-23T23:27:06.960Z,70.98
2019-02-23T23:29:36.627Z,71.43
2019-02-23T23:32:06.300Z,71.52
2019-02-23T23:34:36.017Z,71.99
2019-02-23T23:37:05.782Z,72.12
2019-02-23T23:39:35.477Z,72.12
2019-02-23T23:42:05.233Z,72.53
2019-02-23T23:44:34.974Z,72.90
2019-02-23T23:47:04.647Z,72.99
2019-02-23T23:49:34.368Z,72.54
2019-02-23T23:52:04.129Z,72.91
2019-02-23T23:54:33.836Z,72.88
2019-02-23T23:57:03.626Z,73.01
2019-02-23T23:59:33.349Z,73.02
